Weather Data

Pearl Creek Farm: 8878 N Farm Road 75, Walnut Grove MO 65770

<== Previous Day (Wednesday 24 Sep 2014) | Next Day (Friday 26 Sep 2014) ==>

Summary Precipitation Data For Thursday 25 September 2014

ElementValueUnits
Precipitation0"
Notes(none)
SourcePearl Creek Farm

Summary Temperature Data For Thursday 25 September 2014

ElementValueUnits
High Temperature79 oF
Low Temperature56 oF
Average Temperature66 oF
High Humidity91 %
Low Humidity58 %
Average Humidity79 %
SourcePearl Creek Farm

Detail Temperature Data For Thursday 25 September 2014

Date / TimeTemp (F)RH (%)Dew Pt (F)Report Date / TimeSource
2014-09-25 00:00:00 59 85 54.5 2014-11-02 13:41:02 Pearl Creek Farm
2014-09-25 00:30:00 58 86 53.7 2014-11-02 13:41:02 Pearl Creek Farm
2014-09-25 01:00:00 58 87 54.0 2014-11-02 13:41:02 Pearl Creek Farm
2014-09-25 01:30:00 58 87 54.0 2014-11-02 13:41:02 Pearl Creek Farm
2014-09-25 02:00:00 58 87 54.0 2014-11-02 13:41:02 Pearl Creek Farm
2014-09-25 02:30:00 58 87 54.2 2014-11-02 13:41:02 Pearl Creek Farm
2014-09-25 03:00:00 57 87 53.2 2014-11-02 13:41:02 Pearl Creek Farm
2014-09-25 03:30:00 57 88 53.3 2014-11-02 13:41:02 Pearl Creek Farm
2014-09-25 04:00:00 56 88 52.3 2014-11-02 13:41:02 Pearl Creek Farm
2014-09-25 04:30:00 56 88 52.5 2014-11-02 13:41:02 Pearl Creek Farm
2014-09-25 05:00:00 56 88 52.3 2014-11-02 13:41:02 Pearl Creek Farm
2014-09-25 05:30:00 56 89 52.7 2014-11-02 13:41:02 Pearl Creek Farm
2014-09-25 06:00:00 56 89 52.7 2014-11-02 13:41:02 Pearl Creek Farm
2014-09-25 06:30:00 56 89 52.8 2014-11-02 13:41:02 Pearl Creek Farm
2014-09-25 07:00:00 56 89 52.7 2014-11-02 13:41:02 Pearl Creek Farm
2014-09-25 07:30:00 56 90 53.0 2014-11-02 13:41:02 Pearl Creek Farm
2014-09-25 08:00:00 56 90 53.1 2014-11-02 13:41:02 Pearl Creek Farm
2014-09-25 08:30:00 57 91 54.3 2014-11-02 13:41:02 Pearl Creek Farm
2014-09-25 09:00:00 59 90 56.1 2014-11-02 13:41:02 Pearl Creek Farm
2014-09-25 09:30:00 61 90 57.9 2014-11-02 13:41:02 Pearl Creek Farm
2014-09-25 10:00:00 63 87 58.9 2014-11-02 13:41:02 Pearl Creek Farm
2014-09-25 10:30:00 65 86 60.7 2014-11-02 13:41:02 Pearl Creek Farm
2014-09-25 11:00:00 68 82 62.1 2014-11-02 13:41:02 Pearl Creek Farm
2014-09-25 11:30:00 71 74 62.1 2014-11-02 13:41:02 Pearl Creek Farm
2014-09-25 12:00:00 73 68 61.8 2014-11-02 13:41:02 Pearl Creek Farm
2014-09-25 12:30:00 74 65 61.5 2014-11-02 13:41:02 Pearl Creek Farm
2014-09-25 13:00:00 75 65 62.2 2014-11-02 13:41:02 Pearl Creek Farm
2014-09-25 13:30:00 76 65 63.2 2014-11-02 13:41:02 Pearl Creek Farm
2014-09-25 14:00:00 77 63 63.2 2014-11-02 13:41:02 Pearl Creek Farm
2014-09-25 14:30:00 77 60 62.1 2014-11-02 13:41:02 Pearl Creek Farm
2014-09-25 15:00:00 78 64 64.6 2014-11-02 13:41:02 Pearl Creek Farm
2014-09-25 15:30:00 78 63 64.2 2014-11-02 13:41:02 Pearl Creek Farm
2014-09-25 16:00:00 79 58 63.0 2014-11-02 13:41:02 Pearl Creek Farm
2014-09-25 16:30:00 79 58 62.7 2014-11-02 13:41:02 Pearl Creek Farm
2014-09-25 17:00:00 79 59 63.2 2014-11-02 13:41:02 Pearl Creek Farm
2014-09-25 17:30:00 78 59 62.5 2014-11-02 13:41:02 Pearl Creek Farm
2014-09-25 18:00:00 77 65 64.3 2014-11-02 13:41:02 Pearl Creek Farm
2014-09-25 18:30:00 75 69 63.9 2014-11-02 13:41:02 Pearl Creek Farm
2014-09-25 19:00:00 73 73 63.6 2014-11-02 13:41:02 Pearl Creek Farm
2014-09-25 19:30:00 71 76 62.9 2014-11-02 13:41:02 Pearl Creek Farm
2014-09-25 20:00:00 69 78 61.9 2014-11-02 13:41:02 Pearl Creek Farm
2014-09-25 20:30:00 68 80 61.4 2014-11-02 13:41:02 Pearl Creek Farm
2014-09-25 21:00:00 66 81 60.0 2014-11-02 13:41:02 Pearl Creek Farm
2014-09-25 21:30:00 65 83 59.7 2014-11-02 13:41:02 Pearl Creek Farm
2014-09-25 22:00:00 65 84 60.0 2014-11-02 13:41:02 Pearl Creek Farm
2014-09-25 22:30:00 64 85 59.4 2014-11-02 13:41:02 Pearl Creek Farm
2014-09-25 23:00:00 63 86 58.6 2014-11-02 13:41:02 Pearl Creek Farm
2014-09-25 23:30:00 63 85 58.4 2014-11-02 13:41:02 Pearl Creek Farm

A total of 48 rows are displayed.